sensor_id;sensor_type;location;lat;lon;timestamp;P1;durP1;ratioP1;P2;durP2;ratioP2
21894;SDS011;11112;51.270;7.224;2022-10-16T00:01:08;5.85;;;1.67;;
21894;SDS011;11112;51.270;7.224;2022-10-16T00:03:39;7.07;;;1.70;;
21894;SDS011;11112;51.270;7.224;2022-10-16T00:06:08;5.28;;;1.67;;
21894;SDS011;11112;51.270;7.224;2022-10-16T00:08:37;4.38;;;1.58;;
21894;SDS011;11112;51.270;7.224;2022-10-16T00:11:06;3.55;;;1.40;;
21894;SDS011;11112;51.270;7.224;2022-10-16T00:13:37;4.47;;;1.58;;
21894;SDS011;11112;51.270;7.224;2022-10-16T00:16:07;4.90;;;1.90;;
21894;SDS011;11112;51.270;7.224;2022-10-16T00:18:35;5.22;;;1.48;;
21894;SDS011;11112;51.270;7.224;2022-10-16T00:21:03;6.18;;;1.73;;
21894;SDS011;11112;51.270;7.224;2022-10-16T00:23:34;5.35;;;1.52;;
21894;SDS011;11112;51.270;7.224;2022-10-16T00:26:03;5.03;;;1.50;;
21894;SDS011;11112;51.270;7.224;2022-10-16T00:28:33;4.65;;;1.52;;
21894;SDS011;11112;51.270;7.224;2022-10-16T00:31:02;5.72;;;1.52;;
21894;SDS011;11112;51.270;7.224;2022-10-16T00:33:30;4.60;;;1.60;;
21894;SDS011;11112;51.270;7.224;2022-10-16T00:35:58;5.85;;;1.52;;
21894;SDS011;11112;51.270;7.224;2022-10-16T00:38:25;4.18;;;1.63;;
21894;SDS011;11112;51.270;7.224;2022-10-16T00:40:54;7.43;;;1.63;;
21894;SDS011;11112;51.270;7.224;2022-10-16T00:43:38;3.88;;;1.17;;
21894;SDS011;11112;51.270;7.224;2022-10-16T00:46:13;5.18;;;1.50;;
21894;SDS011;11112;51.270;7.224;2022-10-16T00:48:43;4.97;;;1.35;;
21894;SDS011;11112;51.270;7.224;2022-10-16T00:51:17;4.88;;;1.50;;
21894;SDS011;11112;51.270;7.224;2022-10-16T00:53:49;5.07;;;1.70;;
21894;SDS011;11112;51.270;7.224;2022-10-16T00:56:20;3.80;;;1.50;;
21894;SDS011;11112;51.270;7.224;2022-10-16T00:58:47;2.90;;;1.25;;
21894;SDS011;11112;51.270;7.224;2022-10-16T01:01:14;2.65;;;1.30;;
21894;SDS011;11112;51.270;7.224;2022-10-16T01:03:42;6.75;;;1.75;;
21894;SDS011;11112;51.270;7.224;2022-10-16T01:06:16;3.92;;;1.70;;
21894;SDS011;11112;51.270;7.224;2022-10-16T01:08:57;4.28;;;1.40;;
21894;SDS011;11112;51.270;7.224;2022-10-16T01:11:38;2.85;;;1.20;;
21894;SDS011;11112;51.270;7.224;2022-10-16T01:14:19;4.75;;;1.50;;
21894;SDS011;11112;51.270;7.224;2022-10-16T01:16:53;2.83;;;1.20;;
21894;SDS011;11112;51.270;7.224;2022-10-16T01:19:26;3.38;;;1.42;;
21894;SDS011;11112;51.270;7.224;2022-10-16T01:22:23;6.13;;;1.50;;
21894;SDS011;11112;51.270;7.224;2022-10-16T01:25:00;3.88;;;1.50;;
21894;SDS011;11112;51.270;7.224;2022-10-16T01:27:33;3.13;;;1.30;;
21894;SDS011;11112;51.270;7.224;2022-10-16T01:30:04;6.05;;;1.70;;
21894;SDS011;11112;51.270;7.224;2022-10-16T01:32:40;4.20;;;1.42;;
21894;SDS011;11112;51.270;7.224;2022-10-16T01:35:13;6.03;;;1.50;;
21894;SDS011;11112;51.270;7.224;2022-10-16T01:37:48;4.00;;;1.42;;
21894;SDS011;11112;51.270;7.224;2022-10-16T01:40:20;3.08;;;1.30;;
21894;SDS011;11112;51.270;7.224;2022-10-16T01:42:53;2.88;;;1.35;;
21894;SDS011;11112;51.270;7.224;2022-10-16T01:45:25;3.08;;;1.55;;
21894;SDS011;11112;51.270;7.224;2022-10-16T01:47:56;2.15;;;1.30;;
21894;SDS011;11112;51.270;7.224;2022-10-16T01:50:29;3.53;;;1.48;;
21894;SDS011;11112;51.270;7.224;2022-10-16T01:52:58;2.85;;;1.30;;
21894;SDS011;11112;51.270;7.224;2022-10-16T01:55:26;3.75;;;1.40;;
21894;SDS011;11112;51.270;7.224;2022-10-16T01:58:00;4.13;;;1.33;;
21894;SDS011;11112;51.270;7.224;2022-10-16T02:00:31;4.45;;;1.55;;
21894;SDS011;11112;51.270;7.224;2022-10-16T02:02:59;8.07;;;1.33;;
21894;SDS011;11112;51.270;7.224;2022-10-16T02:05:30;2.85;;;1.30;;
21894;SDS011;11112;51.270;7.224;2022-10-16T02:08:04;3.55;;;1.17;;
21894;SDS011;11112;51.270;7.224;2022-10-16T02:10:32;2.97;;;1.30;;
21894;SDS011;11112;51.270;7.224;2022-10-16T02:13:03;2.42;;;1.38;;
21894;SDS011;11112;51.270;7.224;2022-10-16T02:15:35;4.35;;;1.33;;
21894;SDS011;11112;51.270;7.224;2022-10-16T02:18:03;3.20;;;1.75;;
21894;SDS011;11112;51.270;7.224;2022-10-16T02:20:32;2.35;;;1.20;;
21894;SDS011;11112;51.270;7.224;2022-10-16T02:23:08;3.08;;;1.30;;
21894;SDS011;11112;51.270;7.224;2022-10-16T02:25:46;4.53;;;1.20;;
21894;SDS011;11112;51.270;7.224;2022-10-16T02:28:17;2.75;;;1.15;;
21894;SDS011;11112;51.270;7.224;2022-10-16T02:30:51;1.83;;;1.10;;
21894;SDS011;11112;51.270;7.224;2022-10-16T02:33:23;4.18;;;1.10;;
21894;SDS011;11112;51.270;7.224;2022-10-16T02:35:53;2.63;;;1.25;;
21894;SDS011;11112;51.270;7.224;2022-10-16T02:38:21;3.85;;;1.20;;
21894;SDS011;11112;51.270;7.224;2022-10-16T02:40:52;6.18;;;1.08;;
21894;SDS011;11112;51.270;7.224;2022-10-16T02:43:22;2.75;;;1.10;;
21894;SDS011;11112;51.270;7.224;2022-10-16T02:45:51;2.42;;;1.20;;
21894;SDS011;11112;51.270;7.224;2022-10-16T02:48:18;2.30;;;0.93;;
21894;SDS011;11112;51.270;7.224;2022-10-16T02:50:45;3.60;;;1.00;;
21894;SDS011;11112;51.270;7.224;2022-10-16T02:53:12;2.08;;;0.90;;
21894;SDS011;11112;51.270;7.224;2022-10-16T02:55:39;3.50;;;1.20;;
21894;SDS011;11112;51.270;7.224;2022-10-16T02:58:07;2.90;;;1.00;;
21894;SDS011;11112;51.270;7.224;2022-10-16T03:00:35;1.83;;;0.90;;
21894;SDS011;11112;51.270;7.224;2022-10-16T03:03:02;1.80;;;1.00;;
21894;SDS011;11112;51.270;7.224;2022-10-16T03:05:29;3.85;;;1.00;;
21894;SDS011;11112;51.270;7.224;2022-10-16T03:07:56;1.75;;;0.93;;
21894;SDS011;11112;51.270;7.224;2022-10-16T03:10:25;3.08;;;0.90;;
21894;SDS011;11112;51.270;7.224;2022-10-16T03:12:52;3.35;;;1.05;;
21894;SDS011;11112;51.270;7.224;2022-10-16T03:15:19;2.05;;;1.00;;
21894;SDS011;11112;51.270;7.224;2022-10-16T03:17:50;3.35;;;0.90;;
21894;SDS011;11112;51.270;7.224;2022-10-16T03:20:20;2.83;;;0.95;;
21894;SDS011;11112;51.270;7.224;2022-10-16T03:22:48;3.40;;;0.98;;
21894;SDS011;11112;51.270;7.224;2022-10-16T03:25:15;1.92;;;1.30;;
21894;SDS011;11112;51.270;7.224;2022-10-16T03:27:42;4.15;;;1.20;;
21894;SDS011;11112;51.270;7.224;2022-10-16T03:30:10;4.57;;;1.00;;
21894;SDS011;11112;51.270;7.224;2022-10-16T03:32:38;2.38;;;0.85;;
21894;SDS011;11112;51.270;7.224;2022-10-16T03:35:07;2.47;;;0.88;;
21894;SDS011;11112;51.270;7.224;2022-10-16T03:37:34;2.92;;;1.00;;
21894;SDS011;11112;51.270;7.224;2022-10-16T03:40:02;3.45;;;1.17;;
21894;SDS011;11112;51.270;7.224;2022-10-16T03:42:30;2.70;;;1.00;;
21894;SDS011;11112;51.270;7.224;2022-10-16T03:44:57;3.95;;;1.00;;
21894;SDS011;11112;51.270;7.224;2022-10-16T03:47:25;2.10;;;0.98;;
21894;SDS011;11112;51.270;7.224;2022-10-16T03:49:52;3.17;;;1.00;;
21894;SDS011;11112;51.270;7.224;2022-10-16T03:52:20;2.38;;;1.00;;
21894;SDS011;11112;51.270;7.224;2022-10-16T03:54:47;2.95;;;0.82;;
21894;SDS011;11112;51.270;7.224;2022-10-16T03:57:14;2.80;;;0.82;;
21894;SDS011;11112;51.270;7.224;2022-10-16T03:59:42;2.35;;;0.70;;
21894;SDS011;11112;51.270;7.224;2022-10-16T04:02:09;4.55;;;0.80;;
21894;SDS011;11112;51.270;7.224;2022-10-16T04:04:36;4.53;;;0.88;;
21894;SDS011;11112;51.270;7.224;2022-10-16T04:07:04;2.55;;;1.00;;
21894;SDS011;11112;51.270;7.224;2022-10-16T04:09:33;2.67;;;0.80;;
21894;SDS011;11112;51.270;7.224;2022-10-16T04:12:00;1.95;;;0.77;;
21894;SDS011;11112;51.270;7.224;2022-10-16T04:14:28;2.88;;;0.80;;
21894;SDS011;11112;51.270;7.224;2022-10-16T04:16:55;2.03;;;0.77;;
21894;SDS011;11112;51.270;7.224;2022-10-16T04:19:22;3.78;;;0.70;;
21894;SDS011;11112;51.270;7.224;2022-10-16T04:21:49;3.15;;;0.65;;
21894;SDS011;11112;51.270;7.224;2022-10-16T04:24:16;2.92;;;0.68;;
21894;SDS011;11112;51.270;7.224;2022-10-16T04:26:44;3.85;;;0.70;;
21894;SDS011;11112;51.270;7.224;2022-10-16T04:29:11;3.97;;;0.60;;
21894;SDS011;11112;51.270;7.224;2022-10-16T04:31:38;4.50;;;0.75;;
21894;SDS011;11112;51.270;7.224;2022-10-16T04:34:06;4.80;;;0.70;;
21894;SDS011;11112;51.270;7.224;2022-10-16T04:36:33;1.63;;;0.70;;
21894;SDS011;11112;51.270;7.224;2022-10-16T04:39:00;1.98;;;0.80;;
21894;SDS011;11112;51.270;7.224;2022-10-16T04:41:27;3.22;;;0.80;;
21894;SDS011;11112;51.270;7.224;2022-10-16T04:43:55;1.63;;;0.70;;
21894;SDS011;11112;51.270;7.224;2022-10-16T04:46:23;3.33;;;0.60;;
21894;SDS011;11112;51.270;7.224;2022-10-16T04:48:50;4.68;;;0.70;;
21894;SDS011;11112;51.270;7.224;2022-10-16T04:51:18;5.60;;;1.00;;
21894;SDS011;11112;51.270;7.224;2022-10-16T04:53:45;2.88;;;0.80;;
21894;SDS011;11112;51.270;7.224;2022-10-16T04:56:12;2.72;;;0.70;;
21894;SDS011;11112;51.270;7.224;2022-10-16T04:58:40;1.35;;;0.63;;
21894;SDS011;11112;51.270;7.224;2022-10-16T05:01:09;1.75;;;0.75;;
21894;SDS011;11112;51.270;7.224;2022-10-16T05:03:36;3.53;;;0.75;;
21894;SDS011;11112;51.270;7.224;2022-10-16T05:06:04;2.75;;;0.70;;
21894;SDS011;11112;51.270;7.224;2022-10-16T05:08:32;3.38;;;0.73;;
21894;SDS011;11112;51.270;7.224;2022-10-16T05:10:59;3.20;;;0.90;;
21894;SDS011;11112;51.270;7.224;2022-10-16T05:13:27;1.20;;;0.70;;
21894;SDS011;11112;51.270;7.224;2022-10-16T05:15:54;4.05;;;0.70;;
21894;SDS011;11112;51.270;7.224;2022-10-16T05:18:23;4.50;;;0.90;;
21894;SDS011;11112;51.270;7.224;2022-10-16T05:20:50;2.85;;;0.80;;
21894;SDS011;11112;51.270;7.224;2022-10-16T05:23:18;3.13;;;0.88;;
21894;SDS011;11112;51.270;7.224;2022-10-16T05:25:51;2.70;;;0.80;;
21894;SDS011;11112;51.270;7.224;2022-10-16T05:28:20;3.42;;;0.90;;
21894;SDS011;11112;51.270;7.224;2022-10-16T05:30:47;2.63;;;0.93;;
21894;SDS011;11112;51.270;7.224;2022-10-16T05:33:14;3.72;;;0.85;;
21894;SDS011;11112;51.270;7.224;2022-10-16T05:35:43;2.28;;;0.90;;
21894;SDS011;11112;51.270;7.224;2022-10-16T05:38:10;1.45;;;0.80;;
21894;SDS011;11112;51.270;7.224;2022-10-16T05:40:37;2.97;;;1.20;;
21894;SDS011;11112;51.270;7.224;2022-10-16T05:43:05;4.22;;;1.23;;
21894;SDS011;11112;51.270;7.224;2022-10-16T05:45:32;3.33;;;1.00;;
21894;SDS011;11112;51.270;7.224;2022-10-16T05:47:59;4.28;;;0.90;;
21894;SDS011;11112;51.270;7.224;2022-10-16T05:50:27;5.15;;;1.00;;
21894;SDS011;11112;51.270;7.224;2022-10-16T05:52:56;5.40;;;1.10;;
21894;SDS011;11112;51.270;7.224;2022-10-16T05:55:23;1.25;;;0.88;;
21894;SDS011;11112;51.270;7.224;2022-10-16T05:57:50;1.88;;;0.90;;
21894;SDS011;11112;51.270;7.224;2022-10-16T06:00:20;3.80;;;0.90;;
21894;SDS011;11112;51.270;7.224;2022-10-16T06:02:48;1.85;;;0.85;;
21894;SDS011;11112;51.270;7.224;2022-10-16T06:05:15;3.67;;;0.82;;
21894;SDS011;11112;51.270;7.224;2022-10-16T06:07:42;2.85;;;0.90;;
21894;SDS011;11112;51.270;7.224;2022-10-16T06:10:10;1.52;;;1.00;;
21894;SDS011;11112;51.270;7.224;2022-10-16T06:12:37;3.15;;;0.88;;
21894;SDS011;11112;51.270;7.224;2022-10-16T06:15:05;3.10;;;0.90;;
21894;SDS011;11112;51.270;7.224;2022-10-16T06:17:33;3.28;;;1.23;;
21894;SDS011;11112;51.270;7.224;2022-10-16T06:20:00;2.60;;;0.90;;
21894;SDS011;11112;51.270;7.224;2022-10-16T06:22:27;3.35;;;1.10;;
21894;SDS011;11112;51.270;7.224;2022-10-16T06:24:54;3.13;;;0.82;;
21894;SDS011;11112;51.270;7.224;2022-10-16T06:27:23;1.45;;;0.95;;
21894;SDS011;11112;51.270;7.224;2022-10-16T06:29:50;3.25;;;0.85;;
21894;SDS011;11112;51.270;7.224;2022-10-16T06:32:17;2.35;;;0.90;;
21894;SDS011;11112;51.270;7.224;2022-10-16T06:34:44;2.47;;;1.10;;
21894;SDS011;11112;51.270;7.224;2022-10-16T06:37:12;2.25;;;1.10;;
21894;SDS011;11112;51.270;7.224;2022-10-16T06:39:39;2.45;;;1.00;;
21894;SDS011;11112;51.270;7.224;2022-10-16T06:42:06;4.78;;;1.10;;
21894;SDS011;11112;51.270;7.224;2022-10-16T06:44:35;2.90;;;0.95;;
21894;SDS011;11112;51.270;7.224;2022-10-16T06:47:03;3.00;;;1.00;;
21894;SDS011;11112;51.270;7.224;2022-10-16T06:49:30;2.15;;;0.85;;
21894;SDS011;11112;51.270;7.224;2022-10-16T06:51:57;5.45;;;1.00;;
21894;SDS011;11112;51.270;7.224;2022-10-16T06:54:24;2.85;;;1.00;;
21894;SDS011;11112;51.270;7.224;2022-10-16T06:56:51;1.77;;;0.90;;
21894;SDS011;11112;51.270;7.224;2022-10-16T06:59:19;2.17;;;0.90;;
21894;SDS011;11112;51.270;7.224;2022-10-16T07:01:48;2.22;;;0.90;;
21894;SDS011;11112;51.270;7.224;2022-10-16T07:04:15;3.08;;;1.10;;
21894;SDS011;11112;51.270;7.224;2022-10-16T07:06:42;4.85;;;1.02;;
21894;SDS011;11112;51.270;7.224;2022-10-16T07:09:10;2.83;;;1.15;;
21894;SDS011;11112;51.270;7.224;2022-10-16T07:11:38;2.65;;;1.10;;
21894;SDS011;11112;51.270;7.224;2022-10-16T07:14:09;3.10;;;0.90;;
21894;SDS011;11112;51.270;7.224;2022-10-16T07:16:42;3.67;;;1.20;;
21894;SDS011;11112;51.270;7.224;2022-10-16T07:19:11;1.80;;;1.00;;
21894;SDS011;11112;51.270;7.224;2022-10-16T07:21:40;2.55;;;0.95;;
21894;SDS011;11112;51.270;7.224;2022-10-16T07:24:10;4.60;;;1.10;;
21894;SDS011;11112;51.270;7.224;2022-10-16T07:26:40;3.53;;;1.10;;
21894;SDS011;11112;51.270;7.224;2022-10-16T07:29:12;3.90;;;1.17;;
21894;SDS011;11112;51.270;7.224;2022-10-16T07:31:41;5.10;;;1.10;;
21894;SDS011;11112;51.270;7.224;2022-10-16T07:34:10;3.35;;;1.00;;
21894;SDS011;11112;51.270;7.224;2022-10-16T07:36:40;2.40;;;1.08;;
21894;SDS011;11112;51.270;7.224;2022-10-16T07:39:11;4.15;;;1.23;;
21894;SDS011;11112;51.270;7.224;2022-10-16T07:41:38;4.43;;;1.30;;
21894;SDS011;11112;51.270;7.224;2022-10-16T07:44:08;3.50;;;1.23;;
21894;SDS011;11112;51.270;7.224;2022-10-16T07:46:35;5.03;;;1.40;;
21894;SDS011;11112;51.270;7.224;2022-10-16T07:49:03;2.88;;;1.27;;
21894;SDS011;11112;51.270;7.224;2022-10-16T07:51:31;3.20;;;0.98;;
21894;SDS011;11112;51.270;7.224;2022-10-16T07:53:59;1.77;;;1.00;;
21894;SDS011;11112;51.270;7.224;2022-10-16T07:56:26;2.25;;;1.00;;
21894;SDS011;11112;51.270;7.224;2022-10-16T07:58:54;3.13;;;1.10;;
21894;SDS011;11112;51.270;7.224;2022-10-16T08:01:21;4.15;;;1.50;;
21894;SDS011;11112;51.270;7.224;2022-10-16T08:03:51;3.72;;;1.48;;
21894;SDS011;11112;51.270;7.224;2022-10-16T08:06:19;3.42;;;1.30;;
21894;SDS011;11112;51.270;7.224;2022-10-16T08:08:50;3.00;;;1.20;;
21894;SDS011;11112;51.270;7.224;2022-10-16T08:11:17;4.35;;;1.30;;
21894;SDS011;11112;51.270;7.224;2022-10-16T08:13:45;5.38;;;1.42;;
21894;SDS011;11112;51.270;7.224;2022-10-16T08:16:12;2.30;;;1.10;;
21894;SDS011;11112;51.270;7.224;2022-10-16T08:18:39;3.03;;;1.40;;
21894;SDS011;11112;51.270;7.224;2022-10-16T08:21:11;3.47;;;1.20;;
21894;SDS011;11112;51.270;7.224;2022-10-16T08:23:43;1.73;;;1.13;;
21894;SDS011;11112;51.270;7.224;2022-10-16T08:26:12;2.40;;;0.90;;
21894;SDS011;11112;51.270;7.224;2022-10-16T08:28:42;2.33;;;1.08;;
21894;SDS011;11112;51.270;7.224;2022-10-16T08:31:10;2.83;;;1.10;;
21894;SDS011;11112;51.270;7.224;2022-10-16T08:33:40;3.58;;;1.40;;
21894;SDS011;11112;51.270;7.224;2022-10-16T08:36:10;5.10;;;1.38;;
21894;SDS011;11112;51.270;7.224;2022-10-16T08:38:37;3.25;;;1.00;;
21894;SDS011;11112;51.270;7.224;2022-10-16T08:44:23;2.55;;;1.00;;
21894;SDS011;11112;51.270;7.224;2022-10-16T08:47:06;2.83;;;0.82;;
21894;SDS011;11112;51.270;7.224;2022-10-16T08:49:40;3.53;;;0.90;;
21894;SDS011;11112;51.270;7.224;2022-10-16T08:52:10;2.00;;;0.80;;
21894;SDS011;11112;51.270;7.224;2022-10-16T08:54:41;3.17;;;0.90;;
21894;SDS011;11112;51.270;7.224;2022-10-16T08:57:16;2.65;;;0.95;;
21894;SDS011;11112;51.270;7.224;2022-10-16T08:59:47;2.65;;;0.80;;
21894;SDS011;11112;51.270;7.224;2022-10-16T09:02:19;2.92;;;0.90;;
21894;SDS011;11112;51.270;7.224;2022-10-16T09:05:01;5.28;;;1.38;;
21894;SDS011;11112;51.270;7.224;2022-10-16T09:07:49;3.92;;;1.20;;
21894;SDS011;11112;51.270;7.224;2022-10-16T09:10:32;5.00;;;1.00;;
21894;SDS011;11112;51.270;7.224;2022-10-16T09:13:14;3.53;;;1.02;;
21894;SDS011;11112;51.270;7.224;2022-10-16T09:15:50;3.25;;;1.10;;
21894;SDS011;11112;51.270;7.224;2022-10-16T09:18:29;4.80;;;1.10;;
21894;SDS011;11112;51.270;7.224;2022-10-16T09:21:06;3.03;;;1.00;;
21894;SDS011;11112;51.270;7.224;2022-10-16T09:23:42;3.88;;;1.00;;
21894;SDS011;11112;51.270;7.224;2022-10-16T09:26:11;2.75;;;0.98;;
21894;SDS011;11112;51.270;7.224;2022-10-16T09:28:41;5.25;;;1.10;;
21894;SDS011;11112;51.270;7.224;2022-10-16T09:31:11;4.10;;;1.00;;
21894;SDS011;11112;51.270;7.224;2022-10-16T09:33:45;4.32;;;1.15;;
21894;SDS011;11112;51.270;7.224;2022-10-16T09:36:20;2.88;;;0.85;;
21894;SDS011;11112;51.270;7.224;2022-10-16T09:38:49;4.65;;;1.02;;
21894;SDS011;11112;51.270;7.224;2022-10-16T09:41:19;8.50;;;0.90;;
21894;SDS011;11112;51.270;7.224;2022-10-16T09:43:53;2.88;;;1.00;;
21894;SDS011;11112;51.270;7.224;2022-10-16T09:46:27;5.10;;;1.20;;
21894;SDS011;11112;51.270;7.224;2022-10-16T09:51:26;5.65;;;3.20;;
21894;SDS011;11112;51.270;7.224;2022-10-16T09:53:56;19.55;;;15.98;;
21894;SDS011;11112;51.270;7.224;2022-10-16T09:56:27;37.10;;;30.23;;
21894;SDS011;11112;51.270;7.224;2022-10-16T09:58:59;20.42;;;17.30;;
21894;SDS011;11112;51.270;7.224;2022-10-16T10:01:30;7.72;;;2.88;;
21894;SDS011;11112;51.270;7.224;2022-10-16T10:04:03;10.20;;;6.32;;
21894;SDS011;11112;51.270;7.224;2022-10-16T10:06:32;4.15;;;2.33;;
21894;SDS011;11112;51.270;7.224;2022-10-16T10:09:06;3.38;;;1.10;;
21894;SDS011;11112;51.270;7.224;2022-10-16T10:11:49;2.83;;;1.20;;
21894;SDS011;11112;51.270;7.224;2022-10-16T10:14:24;4.03;;;1.15;;
21894;SDS011;11112;51.270;7.224;2022-10-16T10:17:06;3.28;;;1.17;;
21894;SDS011;11112;51.270;7.224;2022-10-16T10:19:43;2.33;;;0.93;;
21894;SDS011;11112;51.270;7.224;2022-10-16T10:25:14;6.18;;;2.88;;
21894;SDS011;11112;51.270;7.224;2022-10-16T10:27:58;8.27;;;3.90;;
21894;SDS011;11112;51.270;7.224;2022-10-16T10:30:47;7.85;;;3.80;;
21894;SDS011;11112;51.270;7.224;2022-10-16T10:33:25;9.57;;;6.55;;
21894;SDS011;11112;51.270;7.224;2022-10-16T10:36:08;6.57;;;3.70;;
21894;SDS011;11112;51.270;7.224;2022-10-16T10:38:47;4.28;;;2.30;;
21894;SDS011;11112;51.270;7.224;2022-10-16T10:41:22;4.97;;;1.80;;
21894;SDS011;11112;51.270;7.224;2022-10-16T10:44:09;3.85;;;1.55;;
21894;SDS011;11112;51.270;7.224;2022-10-16T10:46:47;6.30;;;3.10;;
21894;SDS011;11112;51.270;7.224;2022-10-16T10:55:20;5.60;;;2.15;;
21894;SDS011;11112;51.270;7.224;2022-10-16T10:58:08;3.97;;;1.60;;
21894;SDS011;11112;51.270;7.224;2022-10-16T11:01:04;4.10;;;1.50;;
21894;SDS011;11112;51.270;7.224;2022-10-16T11:06:20;2.83;;;1.38;;
21894;SDS011;11112;51.270;7.224;2022-10-16T11:08:53;4.38;;;1.20;;
21894;SDS011;11112;51.270;7.224;2022-10-16T11:11:29;2.65;;;1.00;;
21894;SDS011;11112;51.270;7.224;2022-10-16T11:14:03;4.78;;;1.52;;
21894;SDS011;11112;51.270;7.224;2022-10-16T11:16:40;3.85;;;1.60;;
21894;SDS011;11112;51.270;7.224;2022-10-16T11:19:17;2.65;;;1.40;;
21894;SDS011;11112;51.270;7.224;2022-10-16T11:21:56;4.35;;;1.73;;
21894;SDS011;11112;51.270;7.224;2022-10-16T11:24:34;2.85;;;1.05;;
21894;SDS011;11112;51.270;7.224;2022-10-16T11:27:11;3.38;;;0.98;;
21894;SDS011;11112;51.270;7.224;2022-10-16T11:29:45;3.08;;;0.80;;
21894;SDS011;11112;51.270;7.224;2022-10-16T11:32:19;2.08;;;0.80;;
21894;SDS011;11112;51.270;7.224;2022-10-16T11:34:53;2.13;;;0.73;;
21894;SDS011;11112;51.270;7.224;2022-10-16T11:37:27;2.67;;;1.10;;
21894;SDS011;11112;51.270;7.224;2022-10-16T11:40:03;4.25;;;1.20;;
21894;SDS011;11112;51.270;7.224;2022-10-16T11:42:46;2.50;;;1.02;;
21894;SDS011;11112;51.270;7.224;2022-10-16T11:45:23;4.90;;;0.95;;
21894;SDS011;11112;51.270;7.224;2022-10-16T11:47:59;3.17;;;1.10;;
21894;SDS011;11112;51.270;7.224;2022-10-16T11:50:34;2.75;;;0.85;;
21894;SDS011;11112;51.270;7.224;2022-10-16T11:53:09;3.60;;;0.88;;
21894;SDS011;11112;51.270;7.224;2022-10-16T11:55:42;4.57;;;0.80;;
21894;SDS011;11112;51.270;7.224;2022-10-16T11:58:14;3.92;;;1.10;;
21894;SDS011;11112;51.270;7.224;2022-10-16T12:00:51;2.58;;;0.70;;
21894;SDS011;11112;51.270;7.224;2022-10-16T12:03:27;3.90;;;1.20;;
21894;SDS011;11112;51.270;7.224;2022-10-16T12:06:05;3.45;;;1.20;;
21894;SDS011;11112;51.270;7.224;2022-10-16T12:08:45;2.28;;;0.70;;
21894;SDS011;11112;51.270;7.224;2022-10-16T12:11:22;4.18;;;0.70;;
21894;SDS011;11112;51.270;7.224;2022-10-16T12:14:18;2.90;;;0.68;;
21894;SDS011;11112;51.270;7.224;2022-10-16T12:17:02;4.63;;;1.15;;
21894;SDS011;11112;51.270;7.224;2022-10-16T12:19:57;5.22;;;1.05;;
21894;SDS011;11112;51.270;7.224;2022-10-16T12:22:28;2.90;;;1.08;;
21894;SDS011;11112;51.270;7.224;2022-10-16T12:24:59;3.63;;;0.73;;
21894;SDS011;11112;51.270;7.224;2022-10-16T12:27:27;2.50;;;0.65;;
21894;SDS011;11112;51.270;7.224;2022-10-16T12:29:57;3.45;;;1.10;;
21894;SDS011;11112;51.270;7.224;2022-10-16T12:32:28;4.80;;;0.95;;
21894;SDS011;11112;51.270;7.224;2022-10-16T12:34:58;3.70;;;1.45;;
21894;SDS011;11112;51.270;7.224;2022-10-16T12:37:28;2.58;;;0.90;;
21894;SDS011;11112;51.270;7.224;2022-10-16T12:39:59;3.88;;;0.75;;
21894;SDS011;11112;51.270;7.224;2022-10-16T12:42:39;4.97;;;0.70;;
21894;SDS011;11112;51.270;7.224;2022-10-16T12:45:23;4.00;;;0.88;;
21894;SDS011;11112;51.270;7.224;2022-10-16T12:47:54;3.72;;;1.10;;
21894;SDS011;11112;51.270;7.224;2022-10-16T12:50:27;2.85;;;0.70;;
21894;SDS011;11112;51.270;7.224;2022-10-16T12:52:59;2.13;;;0.70;;
21894;SDS011;11112;51.270;7.224;2022-10-16T12:55:31;2.08;;;0.77;;
21894;SDS011;11112;51.270;7.224;2022-10-16T12:58:24;4.10;;;0.90;;
21894;SDS011;11112;51.270;7.224;2022-10-16T13:01:24;5.30;;;1.00;;
21894;SDS011;11112;51.270;7.224;2022-10-16T13:07:16;2.60;;;0.90;;
21894;SDS011;11112;51.270;7.224;2022-10-16T13:10:05;3.30;;;0.80;;
21894;SDS011;11112;51.270;7.224;2022-10-16T13:12:57;3.00;;;0.95;;
21894;SDS011;11112;51.270;7.224;2022-10-16T13:15:42;3.78;;;1.15;;
21894;SDS011;11112;51.270;7.224;2022-10-16T13:18:38;2.33;;;0.60;;
21894;SDS011;11112;51.270;7.224;2022-10-16T13:21:18;3.15;;;1.00;;
21894;SDS011;11112;51.270;7.224;2022-10-16T13:24:02;4.40;;;1.00;;
21894;SDS011;11112;51.270;7.224;2022-10-16T13:26:49;3.17;;;1.00;;
21894;SDS011;11112;51.270;7.224;2022-10-16T13:29:23;2.35;;;0.80;;
21894;SDS011;11112;51.270;7.224;2022-10-16T13:31:56;3.35;;;0.77;;
21894;SDS011;11112;51.270;7.224;2022-10-16T13:34:25;2.08;;;0.60;;
21894;SDS011;11112;51.270;7.224;2022-10-16T13:36:53;3.47;;;1.00;;
21894;SDS011;11112;51.270;7.224;2022-10-16T13:39:23;2.92;;;0.90;;
21894;SDS011;11112;51.270;7.224;2022-10-16T13:42:00;3.20;;;1.00;;
21894;SDS011;11112;51.270;7.224;2022-10-16T13:44:31;3.20;;;0.85;;
21894;SDS011;11112;51.270;7.224;2022-10-16T13:47:03;4.68;;;0.90;;
21894;SDS011;11112;51.270;7.224;2022-10-16T13:49:30;4.03;;;1.35;;
21894;SDS011;11112;51.270;7.224;2022-10-16T13:51:58;2.55;;;1.10;;
21894;SDS011;11112;51.270;7.224;2022-10-16T13:54:26;3.22;;;0.88;;
21894;SDS011;11112;51.270;7.224;2022-10-16T13:56:54;3.72;;;0.60;;
21894;SDS011;11112;51.270;7.224;2022-10-16T13:59:24;3.90;;;0.50;;
21894;SDS011;11112;51.270;7.224;2022-10-16T14:01:53;1.88;;;0.47;;
21894;SDS011;11112;51.270;7.224;2022-10-16T14:04:23;2.25;;;0.40;;
21894;SDS011;11112;51.270;7.224;2022-10-16T14:06:58;2.00;;;0.40;;
21894;SDS011;11112;51.270;7.224;2022-10-16T14:09:29;2.30;;;0.47;;
21894;SDS011;11112;51.270;7.224;2022-10-16T14:11:58;3.58;;;0.50;;
21894;SDS011;11112;51.270;7.224;2022-10-16T14:14:33;3.22;;;0.60;;
21894;SDS011;11112;51.270;7.224;2022-10-16T14:17:06;2.38;;;0.45;;
21894;SDS011;11112;51.270;7.224;2022-10-16T14:19:40;1.42;;;0.43;;
21894;SDS011;11112;51.270;7.224;2022-10-16T14:22:21;2.83;;;0.60;;
21894;SDS011;11112;51.270;7.224;2022-10-16T14:24:55;2.20;;;0.60;;
21894;SDS011;11112;51.270;7.224;2022-10-16T14:27:27;3.13;;;0.50;;
21894;SDS011;11112;51.270;7.224;2022-10-16T14:30:09;2.30;;;0.40;;
21894;SDS011;11112;51.270;7.224;2022-10-16T14:32:52;2.83;;;0.52;;
21894;SDS011;11112;51.270;7.224;2022-10-16T14:35:23;2.33;;;0.40;;
21894;SDS011;11112;51.270;7.224;2022-10-16T14:37:55;0.90;;;0.23;;
21894;SDS011;11112;51.270;7.224;2022-10-16T14:40:25;3.13;;;0.50;;
21894;SDS011;11112;51.270;7.224;2022-10-16T14:42:54;1.52;;;0.50;;
21894;SDS011;11112;51.270;7.224;2022-10-16T14:45:25;2.17;;;0.50;;
21894;SDS011;11112;51.270;7.224;2022-10-16T14:47:56;2.85;;;0.55;;
21894;SDS011;11112;51.270;7.224;2022-10-16T14:50:25;1.23;;;0.40;;
21894;SDS011;11112;51.270;7.224;2022-10-16T14:52:52;2.50;;;0.50;;
21894;SDS011;11112;51.270;7.224;2022-10-16T14:55:19;2.85;;;0.40;;
21894;SDS011;11112;51.270;7.224;2022-10-16T14:57:47;3.78;;;0.80;;
21894;SDS011;11112;51.270;7.224;2022-10-16T15:00:16;4.20;;;0.60;;
21894;SDS011;11112;51.270;7.224;2022-10-16T15:02:48;3.65;;;0.63;;
21894;SDS011;11112;51.270;7.224;2022-10-16T15:05:17;1.08;;;0.40;;
21894;SDS011;11112;51.270;7.224;2022-10-16T15:07:47;1.92;;;0.47;;
21894;SDS011;11112;51.270;7.224;2022-10-16T15:10:15;1.90;;;0.50;;
21894;SDS011;11112;51.270;7.224;2022-10-16T15:12:44;3.00;;;0.80;;
21894;SDS011;11112;51.270;7.224;2022-10-16T15:18:00;3.85;;;0.80;;
21894;SDS011;11112;51.270;7.224;2022-10-16T15:20:28;2.05;;;0.60;;
21894;SDS011;11112;51.270;7.224;2022-10-16T15:23:05;2.05;;;0.50;;
21894;SDS011;11112;51.270;7.224;2022-10-16T15:25:41;1.52;;;0.55;;
21894;SDS011;11112;51.270;7.224;2022-10-16T15:28:11;3.00;;;0.80;;
21894;SDS011;11112;51.270;7.224;2022-10-16T15:30:39;4.68;;;0.65;;
21894;SDS011;11112;51.270;7.224;2022-10-16T15:33:12;3.45;;;0.60;;
21894;SDS011;11112;51.270;7.224;2022-10-16T15:35:42;2.88;;;0.73;;
21894;SDS011;11112;51.270;7.224;2022-10-16T15:38:12;2.78;;;0.70;;